Time;durP1;ratioP1;P1;durP2;ratioP2;P2;SDS_P1;SDS_P2;PMS_P1;PMS_P2;Temp;Humidity;BMP_temperature;BMP_pressure;BME280_temperature;BME280_humidity;BME280_pressure;Samples;Min_cycle;Max_cycle;Signal;HPM_P1;HPM_P2
2022/07/25 00:01:01;;;;;;;12.48;8.98;;;;;;;23.19;93.66;98054.94;4994600;28;20475;-74
2022/07/25 00:03:26;;;;;;;11.43;8.75;;;;;;;23.13;94.61;98059.22;5011932;28;20044;-74
2022/07/25 00:05:52;;;;;;;10.30;8.10;;;;;;;23.09;95.19;98051.97;5012044;28;20029;-74
2022/07/25 00:08:17;;;;;;;10.13;8.23;;;;;;;22.96;96.49;98051.38;5012297;28;20030;-74
2022/07/25 00:10:44;;;;;;;11.07;8.40;;;;;;;22.98;96.30;98049.00;5012286;28;20096;-74
2022/07/25 00:13:09;;;;;;;12.00;9.15;;;;;;;22.91;97.00;98046.91;5011866;28;20037;-73
2022/07/25 00:15:35;;;;;;;11.63;8.88;;;;;;;22.94;96.22;98042.56;5012203;28;20116;-74
2022/07/25 00:18:00;;;;;;;9.52;8.02;;;;;;;23.04;95.48;98047.50;4994833;28;20026;-73
2022/07/25 00:20:26;;;;;;;11.57;8.63;;;;;;;23.04;95.12;98036.34;4994189;28;20133;-73
2022/07/25 00:22:51;;;;;;;13.63;9.05;;;;;;;22.97;95.55;98039.03;5011961;28;20034;-75
2022/07/25 00:25:17;;;;;;;11.45;8.70;;;;;;;22.88;95.95;98032.91;5011839;28;20037;-73
2022/07/25 00:27:42;;;;;;;11.30;8.40;;;;;;;23.00;95.37;98029.09;5011809;28;20030;-75
2022/07/25 00:30:08;;;;;;;12.15;9.82;;;;;;;22.96;95.45;98033.84;5011832;28;20034;-73
2022/07/25 00:32:33;;;;;;;13.65;9.35;;;;;;;22.94;95.82;98031.41;5010992;28;20393;-74
2022/07/25 00:34:59;;;;;;;15.30;9.65;;;;;;;22.85;96.85;98033.66;5011486;28;20030;-74
2022/07/25 00:37:24;;;;;;;14.70;9.48;;;;;;;22.81;97.45;98038.34;5011664;28;20205;-74
2022/07/25 00:39:49;;;;;;;12.35;8.88;;;;;;;22.76;98.33;98033.09;5011774;28;20117;-73
2022/07/25 00:42:14;;;;;;;13.60;8.98;;;;;;;22.68;98.88;98032.16;5011674;28;20033;-74
2022/07/25 00:44:40;;;;;;;17.65;9.00;;;;;;;22.75;98.52;98028.69;5011014;28;20026;-74
2022/07/25 00:47:05;;;;;;;10.57;8.52;;;;;;;22.59;99.85;98028.78;5011709;28;20026;-74
2022/07/25 00:49:31;;;;;;;12.07;9.02;;;;;;;22.59;100.00;98025.19;5011320;28;20022;-73
2022/07/25 00:51:58;;;;;;;11.13;9.30;;;;;;;22.63;99.93;98026.06;5011050;28;20065;-75
2022/07/25 00:54:24;;;;;;;10.40;9.27;;;;;;;22.65;99.64;98018.13;5011241;28;20101;-74
2022/07/25 00:56:50;;;;;;;11.85;9.07;;;;;;;22.68;99.69;98032.16;5011298;28;20037;-73
2022/07/25 00:59:16;;;;;;;13.05;9.73;;;;;;;22.70;99.21;98034.59;5011328;28;20032;-74
2022/07/25 01:01:44;;;;;;;14.75;9.70;;;;;;;22.63;99.29;98031.66;5011230;28;20033;-74
2022/07/25 01:04:09;;;;;;;12.27;9.05;;;;;;;22.57;100.00;98027.56;5011082;28;20026;-74
2022/07/25 01:06:35;;;;;;;11.85;9.27;;;;;;;22.61;99.78;98022.88;5011112;28;20498;-73
2022/07/25 01:09:00;;;;;;;13.00;9.13;;;;;;;22.59;99.72;98034.38;5011177;28;20036;-73
2022/07/25 01:11:26;;;;;;;15.07;9.38;;;;;;;22.45;100.00;98013.81;5011560;28;20124;-76
2022/07/25 01:13:52;;;;;;;11.55;9.70;;;;;;;22.40;100.00;98024.09;5014756;28;20026;-73
2022/07/25 01:16:17;;;;;;;12.70;9.20;;;;;;;22.40;100.00;98018.50;5012661;28;20483;-74
2022/07/25 01:18:43;;;;;;;12.65;8.68;;;;;;;22.30;100.00;98013.53;5010907;28;20061;-76
2022/07/25 01:21:09;;;;;;;15.10;9.55;;;;;;;22.33;100.00;98018.38;5010852;28;20109;-75
2022/07/25 01:23:34;;;;;;;11.43;8.50;;;;;;;22.29;100.00;98019.50;5010876;28;20026;-75
2022/07/25 01:25:59;;;;;;;12.75;10.73;;;;;;;22.25;100.00;98015.84;5010799;28;20497;-74
2022/07/25 01:28:26;;;;;;;12.68;9.38;;;;;;;22.19;100.00;98020.09;5010864;28;20076;-74
2022/07/25 01:30:52;;;;;;;12.80;9.43;;;;;;;22.13;100.00;98013.22;5010926;28;20034;-75
2022/07/25 01:33:18;;;;;;;10.00;8.82;;;;;;;22.08;100.00;98014.34;5010856;28;20483;-76
2022/07/25 01:35:45;;;;;;;11.45;8.90;;;;;;;22.10;100.00;98014.78;5010626;28;20128;-74
2022/07/25 01:38:11;;;;;;;10.88;9.00;;;;;;;22.18;100.00;98005.38;5010854;28;20034;-74
2022/07/25 01:40:37;;;;;;;12.60;10.00;;;;;;;22.27;100.00;98002.34;5010477;28;20065;-75
2022/07/25 01:43:02;;;;;;;13.70;9.40;;;;;;;22.35;100.00;98010.47;4993051;28;20058;-74
2022/07/25 01:45:28;;;;;;;11.80;8.90;;;;;;;22.38;100.00;98017.28;4996445;28;20040;-74
2022/07/25 01:47:53;;;;;;;13.35;9.20;;;;;;;22.32;100.00;98008.44;5020462;28;20030;-77
2022/07/25 01:50:18;;;;;;;11.75;8.80;;;;;;;22.30;100.00;98012.75;5020180;28;20026;-74
2022/07/25 01:52:44;;;;;;;11.50;8.70;;;;;;;22.24;100.00;98008.69;5017627;28;20030;-75
2022/07/25 01:55:10;;;;;;;11.15;8.80;;;;;;;22.35;100.00;98006.88;4997081;28;20026;-74
2022/07/25 01:57:35;;;;;;;13.77;8.50;;;;;;;22.35;100.00;98013.25;4996862;28;20021;-75
2022/07/25 02:00:03;;;;;;;11.13;8.15;;;;;;;22.42;100.00;98007.00;5014718;28;20038;-74
2022/07/25 02:02:28;;;;;;;13.30;9.10;;;;;;;22.29;100.00;98014.75;5014260;28;20485;-74
2022/07/25 02:04:54;;;;;;;10.38;8.27;;;;;;;22.24;100.00;98008.69;5014509;28;20120;-75
2022/07/25 02:07:19;;;;;;;11.45;8.68;;;;;;;22.08;100.00;97997.63;5014605;28;20113;-73
2022/07/25 02:09:44;;;;;;;11.93;8.57;;;;;;;22.04;100.00;98005.09;5014340;28;20033;-74
2022/07/25 02:12:10;;;;;;;12.10;8.38;;;;;;;22.02;100.00;98006.66;5014258;28;20045;-74
2022/07/25 02:14:35;;;;;;;11.45;8.15;;;;;;;22.11;100.00;98004.44;5014325;28;20025;-75
2022/07/25 02:17:00;;;;;;;11.35;8.55;;;;;;;22.06;100.00;98002.75;4996576;28;20010;-74
2022/07/25 02:19:26;;;;;;;13.48;8.50;;;;;;;22.18;100.00;97998.97;5014307;28;20033;-75
2022/07/25 02:21:51;;;;;;;10.68;8.90;;;;;;;22.18;100.00;98002.56;5014378;28;20033;-74
2022/07/25 02:24:16;;;;;;;10.65;8.55;;;;;;;22.12;100.00;97990.13;5014243;28;20040;-73
2022/07/25 02:26:41;;;;;;;11.23;9.18;;;;;;;22.05;100.00;97992.81;4996347;28;20037;-75
2022/07/25 02:29:07;;;;;;;12.80;8.70;;;;;;;22.00;100.00;98009.81;5013948;28;20014;-74
2022/07/25 02:31:32;;;;;;;15.63;9.43;;;;;;;21.83;100.00;98007.47;5013946;28;20036;-74
2022/07/25 02:33:58;;;;;;;13.30;9.32;;;;;;;21.69;100.00;97996.03;5013887;28;20061;-74
2022/07/25 02:36:23;;;;;;;9.98;8.15;;;;;;;21.72;100.00;98004.44;4996147;28;20164;-75
2022/07/25 02:38:48;;;;;;;10.82;8.65;;;;;;;21.69;100.00;97996.81;5014062;28;20025;-74
2022/07/25 02:41:14;;;;;;;13.98;9.15;;;;;;;21.72;100.00;97992.50;5013712;28;20500;-74
2022/07/25 02:43:39;;;;;;;10.85;9.07;;;;;;;21.65;100.00;97997.91;5013628;28;20057;-74
2022/07/25 02:46:04;;;;;;;10.60;9.40;;;;;;;21.52;100.00;97993.69;4996280;28;20100;-75
2022/07/25 02:48:30;;;;;;;11.70;9.23;;;;;;;21.50;100.00;97991.25;5013876;28;20045;-75
2022/07/25 02:50:55;;;;;;;10.95;9.00;;;;;;;21.54;100.00;97997.72;5013585;28;20030;-75
2022/07/25 02:53:20;;;;;;;11.18;9.38;;;;;;;21.56;100.00;97994.53;5013717;28;20068;-74
2022/07/25 02:55:46;;;;;;;10.93;8.90;;;;;;;21.50;100.00;97994.03;5012539;28;20026;-74
2022/07/25 02:58:13;;;;;;;13.27;8.98;;;;;;;21.47;100.00;97991.19;5013531;28;20040;-75
2022/07/25 03:00:39;;;;;;;13.02;9.18;;;;;;;21.44;100.00;97991.91;5013644;28;20408;-74
2022/07/25 03:03:04;;;;;;;10.35;8.40;;;;;;;21.32;100.00;97990.88;4995949;28;20030;-74
2022/07/25 03:05:29;;;;;;;10.32;8.75;;;;;;;21.31;100.00;97991.25;5013373;28;20061;-74
2022/07/25 03:07:55;;;;;;;13.07;9.50;;;;;;;21.22;100.00;97988.69;5013404;28;20121;-74
2022/07/25 03:10:20;;;;;;;12.85;9.23;;;;;;;21.32;100.00;97987.31;5013207;28;20038;-74
2022/07/25 03:12:45;;;;;;;11.85;9.25;;;;;;;21.20;100.00;97982.69;5013205;28;20030;-74
2022/07/25 03:15:11;;;;;;;17.52;10.07;;;;;;;21.15;100.00;97982.94;5013002;28;20038;-74
2022/07/25 03:17:38;;;;;;;11.32;9.30;;;;;;;21.18;100.00;97984.19;5013320;28;20054;-75
2022/07/25 03:20:04;;;;;;;10.60;8.55;;;;;;;21.14;100.00;97984.13;5013428;28;20021;-75
2022/07/25 03:22:30;;;;;;;10.50;8.98;;;;;;;21.19;100.00;97977.47;5013056;28;20032;-75
2022/07/25 03:24:55;;;;;;;12.25;9.00;;;;;;;21.13;100.00;97974.16;5013346;28;20394;-74
2022/07/25 03:27:21;;;;;;;12.38;9.32;;;;;;;21.16;100.00;97984.56;5013462;28;20037;-74
2022/07/25 03:29:46;;;;;;;12.23;8.90;;;;;;;21.13;100.00;97982.50;5015221;28;20042;-75
2022/07/25 03:32:12;;;;;;;11.57;8.57;;;;;;;21.20;100.00;97976.31;5014481;28;20054;-76
2022/07/25 03:34:37;;;;;;;14.52;9.68;;;;;;;21.12;100.00;97975.31;5012911;28;20080;-74
2022/07/25 03:37:03;;;;;;;12.13;8.98;;;;;;;21.21;100.00;97983.47;5012437;28;20053;-74
2022/07/25 03:39:30;;;;;;;13.73;8.73;;;;;;;21.28;100.00;97995.56;5012675;28;20049;-75
2022/07/25 03:41:56;;;;;;;14.50;8.75;;;;;;;21.34;100.00;97987.72;5013053;28;20541;-74
2022/07/25 03:44:22;;;;;;;13.15;9.55;;;;;;;21.31;100.00;97986.50;5012918;28;20030;-74
2022/07/25 03:46:48;;;;;;;11.13;9.25;;;;;;;21.31;100.00;97988.47;5012629;28;20057;-75
2022/07/25 03:49:13;;;;;;;15.00;9.10;;;;;;;21.49;100.00;97991.63;4995013;28;20451;-74
2022/07/25 03:51:39;;;;;;;14.75;10.32;;;;;;;21.56;100.00;98000.13;5012475;28;20033;-75
2022/07/25 03:54:05;;;;;;;13.35;9.50;;;;;;;21.93;100.00;97992.16;5012354;28;20038;-72
2022/07/25 03:56:48;;;;;;;12.50;9.43;;;;;;;22.35;100.00;97998.50;5012586;28;20038;-74
2022/07/25 03:59:16;;;;;;;13.02;9.45;;;;;;;22.30;100.00;98001.63;5012455;28;20034;-74
2022/07/25 04:01:43;;;;;;;9.82;8.30;;;;;;;22.24;100.00;98000.31;5012604;28;20038;-75
2022/07/25 04:04:09;;;;;;;12.10;9.50;;;;;;;22.25;100.00;97999.94;5012132;28;20474;-76
2022/07/25 04:06:35;;;;;;;13.05;9.55;;;;;;;22.13;100.00;97988.16;5012187;28;20076;-73
2022/07/25 04:09:00;;;;;;;10.80;8.68;;;;;;;22.15;100.00;98000.53;5012080;28;20033;-74
2022/07/25 04:11:28;;;;;;;11.63;9.00;;;;;;;22.12;100.00;97994.88;5011987;28;20034;-75
2022/07/25 04:13:54;;;;;;;11.80;9.02;;;;;;;21.96;100.00;97997.78;5011950;28;20041;-76
2022/07/25 04:16:19;;;;;;;12.27;9.18;;;;;;;22.07;100.00;97987.66;5012061;28;20026;-75
2022/07/25 04:18:45;;;;;;;14.02;8.82;;;;;;;22.13;100.00;97997.31;5012061;28;20030;-74
2022/07/25 04:21:10;;;;;;;12.38;9.50;;;;;;;22.12;100.00;97989.31;5011770;28;20121;-75
2022/07/25 04:23:36;;;;;;;13.10;9.32;;;;;;;22.06;100.00;97980.47;5011738;28;20025;-74
2022/07/25 04:26:02;;;;;;;12.70;9.00;;;;;;;22.34;100.00;97986.53;5012253;28;20030;-74
2022/07/25 04:28:28;;;;;;;14.43;9.65;;;;;;;22.42;100.00;97993.88;4994323;28;20033;-74
2022/07/25 04:30:53;;;;;;;12.98;9.25;;;;;;;22.62;100.00;97993.78;5011583;28;20034;-73
2022/07/25 04:33:19;;;;;;;12.27;9.20;;;;;;;22.67;100.00;97990.72;5011599;28;20483;-74
2022/07/25 04:35:45;;;;;;;13.23;9.18;;;;;;;22.81;100.00;97988.13;4993819;28;20404;-74
2022/07/25 04:38:10;;;;;;;11.23;9.00;;;;;;;22.93;100.00;97996.28;5011508;28;20033;-74
2022/07/25 04:40:37;;;;;;;10.38;9.07;;;;;;;23.34;100.00;98000.91;5011511;28;20486;-74
2022/07/25 04:43:03;;;;;;;10.57;8.57;;;;;;;23.31;100.00;97995.25;5011577;28;20065;-74
2022/07/25 04:45:29;;;;;;;15.82;9.07;;;;;;;23.31;100.00;97990.47;5011703;28;20561;-75
2022/07/25 04:47:54;;;;;;;12.75;9.27;;;;;;;23.51;100.00;97999.56;5011517;28;20068;-74
2022/07/25 04:50:19;;;;;;;12.30;9.88;;;;;;;23.66;100.00;98000.53;5010637;28;20416;-75
2022/07/25 04:52:45;;;;;;;12.05;9.68;;;;;;;24.09;100.00;98001.88;5011393;28;20390;-75
2022/07/25 04:55:11;;;;;;;13.55;9.80;;;;;;;24.31;100.00;98004.50;5011416;28;20498;-75
2022/07/25 04:57:36;;;;;;;12.38;8.90;;;;;;;24.26;100.00;98001.25;5011450;28;20018;-74
2022/07/25 05:00:06;;;;;;;13.02;9.50;;;;;;;24.36;100.00;97998.56;5011348;28;20521;-74
2022/07/25 05:02:33;;;;;;;10.05;9.05;;;;;;;25.12;98.78;97993.22;5011323;28;20076;-73
2022/07/25 05:04:58;;;;;;;12.20;8.90;;;;;;;27.11;86.00;97998.22;5011233;28;20061;-74
2022/07/25 05:07:24;;;;;;;12.63;9.20;;;;;;;27.87;79.03;98003.28;5011047;28;20065;-75
2022/07/25 05:09:49;;;;;;;13.50;9.52;;;;;;;26.93;83.75;98006.69;5011120;28;20029;-75
2022/07/25 05:12:14;;;;;;;12.38;9.40;;;;;;;25.54;92.48;97993.50;5011028;28;20026;-75
2022/07/25 05:14:40;;;;;;;14.60;9.43;;;;;;;24.92;98.21;97977.88;5011056;28;20030;-75
2022/07/25 05:17:06;;;;;;;13.60;9.98;;;;;;;25.23;96.30;97988.50;5011150;28;20448;-74
2022/07/25 05:19:31;;;;;;;16.15;10.18;;;;;;;25.34;95.99;97992.13;5010777;28;20050;-75
2022/07/25 05:21:56;;;;;;;13.80;10.60;;;;;;;25.14;97.10;97990.84;5010916;28;20018;-75
2022/07/25 05:24:22;;;;;;;15.35;10.65;;;;;;;25.12;97.00;97987.63;5011059;28;20034;-74
2022/07/25 05:26:48;;;;;;;14.18;9.57;;;;;;;24.73;100.00;97984.50;5010854;28;20030;-74
2022/07/25 05:29:14;;;;;;;11.73;9.05;;;;;;;24.19;100.00;97990.81;4993395;28;20041;-75
2022/07/25 05:31:39;;;;;;;15.02;9.85;;;;;;;24.88;99.56;97985.44;5010602;28;20030;-74
2022/07/25 05:34:04;;;;;;;15.48;9.82;;;;;;;24.90;98.39;97989.47;5010556;28;20429;-74
2022/07/25 05:36:30;;;;;;;12.50;9.15;;;;;;;25.01;97.59;97986.75;5010853;28;20568;-74
2022/07/25 05:38:55;;;;;;;16.10;11.82;;;;;;;24.69;99.97;97983.66;5011023;28;20029;-74
2022/07/25 05:41:21;;;;;;;13.90;10.68;;;;;;;24.76;99.63;97975.34;5010910;28;20061;-74
2022/07/25 05:43:47;;;;;;;16.30;11.63;;;;;;;24.72;99.46;97979.28;4995749;28;20368;-74
2022/07/25 05:46:13;;;;;;;13.82;10.25;;;;;;;24.39;100.00;97983.81;4996244;28;20026;-74
2022/07/25 05:48:40;;;;;;;13.68;10.93;;;;;;;24.33;100.00;97978.97;5010710;28;20033;-74
2022/07/25 05:51:05;;;;;;;13.50;10.80;;;;;;;24.55;100.00;97980.78;5010604;28;20125;-75
2022/07/25 05:53:30;;;;;;;12.80;10.27;;;;;;;24.45;100.00;97975.88;5011053;28;20117;-75
2022/07/25 05:55:55;;;;;;;17.83;10.77;;;;;;;24.62;100.00;97983.59;5010852;28;20112;-75
2022/07/25 05:58:21;;;;;;;15.48;10.80;;;;;;;25.21;95.94;97979.69;5010595;28;21000;-74
2022/07/25 06:00:47;;;;;;;15.02;10.15;;;;;;;25.66;93.87;97983.94;5010368;28;20470;-74
2022/07/25 06:03:12;;;;;;;14.00;9.68;;;;;;;25.57;94.39;97986.28;5009999;28;20382;-74
2022/07/25 06:05:38;;;;;;;15.68;10.95;;;;;;;25.86;91.38;97970.41;5010482;28;20033;-74
2022/07/25 06:08:03;;;;;;;14.27;9.55;;;;;;;26.24;89.32;97980.13;4992928;28;20038;-73
2022/07/25 06:10:28;;;;;;;13.73;10.48;;;;;;;26.49;86.90;97975.38;5010546;28;20091;-75
2022/07/25 06:12:54;;;;;;;11.48;9.45;;;;;;;26.66;86.28;97973.78;5010572;28;20036;-74
2022/07/25 06:15:19;;;;;;;14.68;9.55;;;;;;;26.39;85.52;97959.31;5010367;28;20026;-74
2022/07/25 06:17:44;;;;;;;12.32;9.48;;;;;;;26.71;84.09;97970.56;5010311;28;20064;-75
2022/07/25 06:20:11;;;;;;;12.27;9.50;;;;;;;26.77;83.25;97968.94;5010568;28;20114;-74
2022/07/25 06:22:37;;;;;;;15.43;10.80;;;;;;;26.50;84.32;97971.38;5011355;28;20033;-75
2022/07/25 06:25:02;;;;;;;14.48;8.90;;;;;;;26.30;84.13;97968.13;5016930;28;20075;-74
2022/07/25 06:27:28;;;;;;;12.95;9.00;;;;;;;26.50;83.87;97977.75;5016571;28;20026;-74
2022/07/25 06:29:53;;;;;;;15.23;9.38;;;;;;;26.44;84.06;97968.13;4996320;28;20085;-74
2022/07/25 06:32:18;;;;;;;13.52;9.35;;;;;;;26.47;84.04;97966.56;5012993;28;20029;-74
2022/07/25 06:34:44;;;;;;;12.60;9.50;;;;;;;26.38;84.69;97969.72;5013881;28;20030;-74
2022/07/25 06:37:09;;;;;;;15.88;10.05;;;;;;;26.57;83.06;97962.94;4996304;28;20566;-75
2022/07/25 06:39:34;;;;;;;12.13;10.00;;;;;;;26.44;83.43;97968.13;5013937;28;20030;-75
2022/07/25 06:42:00;;;;;;;12.55;10.10;;;;;;;26.47;83.56;97960.94;5013972;28;20433;-74
2022/07/25 06:44:26;;;;;;;14.80;9.65;;;;;;;26.39;83.66;97957.31;5013797;28;20483;-75
2022/07/25 06:46:51;;;;;;;14.73;9.52;;;;;;;26.36;84.27;97960.91;5013932;28;20026;-74
2022/07/25 06:49:16;;;;;;;18.17;9.85;;;;;;;26.95;81.43;97950.91;5013867;28;20112;-75
2022/07/25 06:51:42;;;;;;;13.90;9.90;;;;;;;27.18;80.14;97956.09;5013832;28;20120;-75
2022/07/25 06:54:08;;;;;;;13.45;10.15;;;;;;;27.19;79.77;97954.84;5013929;28;20390;-74
2022/07/25 06:56:33;;;;;;;15.40;9.65;;;;;;;27.41;77.81;97953.59;5013568;28;20029;-74
2022/07/25 06:58:59;;;;;;;12.73;10.05;;;;;;;27.35;79.35;97948.78;5013683;28;20034;-72
2022/07/25 07:01:24;;;;;;;16.42;9.70;;;;;;;27.07;80.41;97950.47;5013608;28;20030;-73
2022/07/25 07:03:50;;;;;;;15.85;10.27;;;;;;;27.05;80.66;97941.66;5013613;28;20080;-73
2022/07/25 07:06:15;;;;;;;14.98;9.57;;;;;;;27.40;78.97;97946.38;5013265;28;20065;-73
2022/07/25 07:08:40;;;;;;;10.80;8.93;;;;;;;27.55;77.89;97947.97;5013367;28;20022;-73
2022/07/25 07:11:07;;;;;;;13.45;9.13;;;;;;;27.32;79.14;97936.38;5013318;28;20038;-73
2022/07/25 07:13:33;;;;;;;14.80;9.85;;;;;;;27.26;79.22;97937.19;5013374;28;20395;-73
2022/07/25 07:15:59;;;;;;;10.68;8.73;;;;;;;27.28;79.51;97941.22;5013421;28;20026;-73
2022/07/25 07:18:25;;;;;;;11.63;8.82;;;;;;;27.54;78.50;97940.72;5013362;28;20467;-73
2022/07/25 07:20:51;;;;;;;15.40;9.35;;;;;;;27.77;77.10;97943.03;5013290;28;20041;-74
2022/07/25 07:23:17;;;;;;;10.85;8.48;;;;;;;27.91;75.19;97942.19;5013093;28;20022;-73
2022/07/25 07:25:45;;;;;;;11.90;8.90;;;;;;;28.06;74.44;97938.09;5012693;28;20390;-74
2022/07/25 07:28:12;;;;;;;12.27;8.57;;;;;;;28.02;74.54;97938.09;4995596;28;20022;-75
2022/07/25 07:30:37;;;;;;;13.88;9.02;;;;;;;27.95;75.78;97938.13;5013114;28;20026;-74
2022/07/25 07:33:02;;;;;;;11.90;8.73;;;;;;;28.41;72.42;97937.84;4995335;28;20126;-73
2022/07/25 07:35:28;;;;;;;11.65;8.60;;;;;;;28.76;71.28;97944.44;5013018;28;20056;-73
2022/07/25 07:37:53;;;;;;;10.10;8.45;;;;;;;29.21;68.25;97941.16;4995389;28;20120;-73
2022/07/25 07:40:20;;;;;;;15.07;9.30;;;;;;;29.43;67.35;97936.13;5012774;28;20015;-74
2022/07/25 07:42:48;;;;;;;10.10;8.05;;;;;;;29.37;63.95;97937.78;5012492;28;20022;-74
2022/07/25 07:45:17;;;;;;;9.38;7.78;;;;;;;29.15;63.15;97934.38;4995181;28;20450;-74
2022/07/25 07:47:45;;;;;;;13.23;7.93;;;;;;;29.02;63.30;97935.31;5013148;28;20061;-74
2022/07/25 07:50:10;;;;;;;11.80;9.07;;;;;;;28.91;63.88;97920.56;5013016;28;20041;-74
2022/07/25 07:52:37;;;;;;;11.57;8.15;;;;;;;29.47;61.73;97925.59;5012743;28;20017;-73
2022/07/25 07:57:47;;;;;;;11.50;7.78;;;;;;;30.39;55.54;97930.00;4998409;28;20406;-73
2022/07/25 08:00:13;;;;;;;10.82;7.85;;;;;;;30.30;55.84;97938.19;5001036;28;20026;-73
2022/07/25 08:02:47;;;;;;;8.48;6.68;;;;;;;30.31;55.26;97931.31;5015705;28;20018;-73
2022/07/25 08:05:20;;;;;;;8.50;7.03;;;;;;;30.34;55.35;97933.28;5012092;28;20029;-74
2022/07/25 08:07:45;;;;;;;10.52;7.05;;;;;;;30.73;54.05;97927.81;5012033;28;20026;-73
2022/07/25 08:10:10;;;;;;;8.40;7.25;;;;;;;31.03;52.70;97931.78;5011812;28;20137;-72
2022/07/25 08:12:39;;;;;;;8.33;6.60;;;;;;;31.37;51.80;97925.88;5011868;28;20501;-72
2022/07/25 08:15:05;;;;;;;7.80;6.70;;;;;;;31.01;51.30;97922.94;5011571;28;20303;-71
2022/07/25 08:17:31;;;;;;;9.02;6.97;;;;;;;30.87;51.21;97918.28;5011926;28;20049;-73
2022/07/25 08:19:56;;;;;;;9.37;6.47;;;;;;;32.33;47.15;97919.75;4993844;28;20524;-76
2022/07/25 08:22:21;;;;;;;9.53;7.40;;;;;;;34.22;43.79;97919.91;5011854;28;20302;-72
2022/07/25 08:24:47;;;;;;;9.90;6.73;;;;;;;34.78;41.82;97922.94;5012146;28;20255;-72
2022/07/25 08:27:12;;;;;;;8.18;6.78;;;;;;;35.85;39.64;97912.22;5011605;28;20308;-75
2022/07/25 08:29:37;;;;;;;8.88;6.65;;;;;;;37.31;36.75;97917.19;5011866;28;20033;-71
2022/07/25 08:32:03;;;;;;;8.53;6.43;;;;;;;38.36;33.81;97913.59;5011595;28;20489;-72
2022/07/25 08:34:28;;;;;;;7.00;6.25;;;;;;;37.70;34.42;97911.81;5011451;28;20354;-72
2022/07/25 08:36:53;;;;;;;7.25;6.55;;;;;;;37.09;35.11;97913.69;5011442;28;20053;-73
2022/07/25 08:39:19;;;;;;;9.87;6.47;;;;;;;37.31;34.71;97913.56;4994014;28;20033;-73
2022/07/25 08:41:44;;;;;;;8.80;7.13;;;;;;;38.80;32.17;97902.44;5011497;28;20272;-73
2022/07/25 08:44:13;;;;;;;9.50;6.70;;;;;;;39.64;30.52;97913.56;5011781;28;20560;-73
2022/07/25 08:46:40;;;;;;;7.88;6.50;;;;;;;38.94;31.67;97904.53;5011857;28;20110;-73
2022/07/25 08:49:07;;;;;;;8.20;6.72;;;;;;;36.95;34.66;97903.66;5011598;28;20058;-74
2022/07/25 08:51:33;;;;;;;7.50;6.47;;;;;;;36.74;35.34;97887.47;5011672;28;20034;-73
2022/07/25 08:53:59;;;;;;;8.93;7.13;;;;;;;38.35;32.74;97888.28;5010665;28;20359;-73
2022/07/25 08:56:24;;;;;;;7.78;6.68;;;;;;;38.12;32.36;97884.13;5011067;28;20080;-74
2022/07/25 08:58:50;;;;;;;8.77;6.47;;;;;;;37.88;32.91;97880.34;5011221;28;20066;-73
2022/07/25 09:01:15;;;;;;;8.52;6.70;;;;;;;33.56;39.98;97881.69;5011396;28;20311;-73
2022/07/25 09:03:42;;;;;;;7.80;6.23;;;;;;;34.19;39.13;97872.50;4993714;28;20018;-74
2022/07/25 09:06:19;;;;;;;9.85;6.97;;;;;;;37.27;34.06;97878.66;5011109;28;20343;-72
2022/07/25 09:08:52;;;;;;;7.10;6.40;;;;;;;36.83;34.22;97861.81;5011053;28;20025;-74
2022/07/25 09:11:31;;;;;;;7.90;5.97;;;;;;;39.36;30.75;97863.53;5011135;28;20092;-74
2022/07/25 09:13:59;;;;;;;8.88;6.63;;;;;;;38.64;32.15;97870.53;5010998;28;20498;-73
2022/07/25 09:16:29;;;;;;;9.82;7.25;;;;;;;37.71;32.66;97862.78;5011079;28;20033;-73
2022/07/25 09:19:05;;;;;;;8.48;6.60;;;;;;;37.17;33.73;97865.66;5010823;28;20488;-73
2022/07/25 09:21:30;;;;;;;9.50;6.13;;;;;;;36.73;34.61;97857.34;5010865;28;20030;-72
2022/07/25 09:24:06;;;;;;;9.40;6.70;;;;;;;37.59;32.86;97860.91;5011002;28;20060;-74
2022/07/25 09:26:46;;;;;;;9.40;6.40;;;;;;;38.91;30.44;97862.59;5011131;28;20037;-74
2022/07/25 09:29:17;;;;;;;8.88;6.18;;;;;;;38.51;31.20;97857.25;5010862;28;20065;-73
2022/07/25 09:31:42;;;;;;;8.18;6.03;;;;;;;39.49;30.54;97855.44;5010968;28;20126;-73
2022/07/25 09:34:08;;;;;;;9.73;7.10;;;;;;;39.28;30.65;97853.75;5011331;28;20449;-72
2022/07/25 09:36:34;;;;;;;8.45;6.80;;;;;;;41.00;28.11;97856.66;4993237;28;20046;-74
2022/07/25 09:39:01;;;;;;;8.30;6.82;;;;;;;40.46;28.85;97852.47;5010728;28;20120;-74
2022/07/25 09:41:40;;;;;;;7.32;6.00;;;;;;;40.21;29.35;97839.56;5010581;28;20050;-74
2022/07/25 09:44:18;;;;;;;7.63;6.72;;;;;;;40.61;28.56;97838.88;5010677;28;20026;-74
2022/07/25 09:46:44;;;;;;;7.63;6.20;;;;;;;42.38;26.10;97836.41;5010798;28;20025;-73
2022/07/25 09:49:13;;;;;;;7.15;6.30;;;;;;;41.95;26.74;97841.25;5010782;28;20029;-74
2022/07/25 09:51:39;;;;;;;7.90;7.00;;;;;;;39.70;29.50;97830.59;5010356;28;20029;-73
2022/07/25 09:54:04;;;;;;;8.73;7.18;;;;;;;39.87;28.92;97829.59;4993255;28;20036;-74
2022/07/25 09:56:32;;;;;;;9.90;6.40;;;;;;;39.49;29.47;97827.59;4992888;28;20037;-73
2022/07/25 09:58:57;;;;;;;8.38;6.72;;;;;;;39.62;29.65;97830.19;4992961;28;20084;-73
2022/07/25 10:01:32;;;;;;;7.53;6.47;;;;;;;37.92;31.86;97821.78;5010442;28;20430;-73
2022/07/25 10:04:11;;;;;;;10.20;7.35;;;;;;;37.23;33.70;97815.22;5010500;28;20033;-74
2022/07/25 10:06:41;;;;;;;8.10;7.15;;;;;;;36.99;34.17;97812.22;5014083;28;20034;-73
2022/07/25 10:09:11;;;;;;;10.45;6.97;;;;;;;37.55;33.20;97811.72;5014411;28;20033;-73
2022/07/25 10:11:37;;;;;;;9.68;7.47;;;;;;;36.92;33.90;97803.94;5014219;28;20108;-74
2022/07/25 10:14:10;;;;;;;8.07;6.32;;;;;;;38.32;32.34;97800.63;5015160;28;20487;-72
2022/07/25 10:16:47;;;;;;;7.40;6.70;;;;;;;39.04;30.90;97803.00;5022414;28;20078;-74
2022/07/25 10:19:13;;;;;;;7.68;6.68;;;;;;;40.11;29.19;97804.47;5019033;28;20121;-73
2022/07/25 10:21:38;;;;;;;6.75;6.05;;;;;;;40.66;28.27;97798.00;5014039;28;20088;-74
2022/07/25 10:24:08;;;;;;;7.95;6.35;;;;;;;41.11;27.66;97797.25;5014069;28;20426;-72
2022/07/25 10:26:38;;;;;;;7.45;6.75;;;;;;;41.26;26.91;97794.28;5013982;28;20036;-73
2022/07/25 10:29:08;;;;;;;7.13;6.43;;;;;;;40.90;27.67;97789.94;4996643;28;20426;-73
2022/07/25 10:31:36;;;;;;;9.30;6.78;;;;;;;40.69;27.71;97785.50;5014295;28;20083;-73
2022/07/25 10:34:04;;;;;;;7.95;6.88;;;;;;;40.97;27.46;97778.06;5014051;28;20022;-73
2022/07/25 10:36:48;;;;;;;7.85;6.72;;;;;;;41.59;26.87;97777.41;5013951;28;20065;-73
2022/07/25 10:39:16;;;;;;;7.90;6.70;;;;;;;41.28;26.84;97776.56;5014009;28;20018;-74
2022/07/25 10:41:43;;;;;;;7.82;6.47;;;;;;;37.11;33.16;97759.09;5013631;28;20267;-73
2022/07/25 10:44:13;;;;;;;8.73;6.05;;;;;;;35.73;35.15;97751.56;5013808;28;20033;-72
2022/07/25 10:46:40;;;;;;;8.45;6.70;;;;;;;34.94;36.54;97737.94;5013577;28;20018;-72
2022/07/25 10:49:06;;;;;;;8.57;6.88;;;;;;;34.17;38.14;97735.81;5013743;28;20025;-73
2022/07/25 10:51:34;;;;;;;9.60;6.57;;;;;;;34.17;38.38;97730.94;5013437;28;20545;-73
2022/07/25 10:54:11;;;;;;;7.72;6.68;;;;;;;34.00;38.42;97722.97;5013554;28;20033;-73
2022/07/25 10:56:36;;;;;;;7.47;6.70;;;;;;;34.13;38.38;97726.63;5013379;28;20030;-72
2022/07/25 10:59:02;;;;;;;7.93;6.20;;;;;;;34.37;37.89;97720.06;5013281;28;20099;-74
2022/07/25 11:01:33;;;;;;;8.93;7.55;;;;;;;34.70;37.00;97714.84;5013246;28;20767;-74
2022/07/25 11:04:04;;;;;;;7.93;5.97;;;;;;;34.83;37.21;97711.94;5013418;28;20033;-74
2022/07/25 11:06:38;;;;;;;7.05;6.35;;;;;;;34.33;37.68;97712.94;4996294;28;20509;-73
2022/07/25 11:09:15;;;;;;;7.55;6.85;;;;;;;34.78;36.82;97704.78;5013651;28;20355;-74
2022/07/25 11:11:46;;;;;;;10.38;6.18;;;;;;;34.87;36.63;97702.00;5012770;28;20124;-74
2022/07/25 11:14:36;;;;;;;7.57;6.40;;;;;;;34.52;37.08;97703.31;5020760;28;20022;-75
2022/07/25 11:17:22;;;;;;;6.85;6.15;;;;;;;34.24;37.03;97681.59;5020623;28;20052;-76
2022/07/25 11:20:02;;;;;;;8.00;6.50;;;;;;;34.58;36.46;97684.41;5020894;28;20075;-76
2022/07/25 11:22:29;;;;;;;6.95;5.93;;;;;;;34.42;36.77;97688.25;5014395;28;20613;-74
2022/07/25 11:24:56;;;;;;;7.95;6.22;;;;;;;34.21;37.53;97693.88;5012652;28;20109;-74